createdAt,value
2018-09-04T00:01:53.383Z,11.80
2018-09-04T00:04:21.720Z,11.60
2018-09-04T00:06:50.060Z,19.23
2018-09-04T00:09:18.420Z,24.03
2018-09-04T00:11:46.752Z,29.27
2018-09-04T00:14:15.098Z,29.53
2018-09-04T00:16:42.851Z,25.53
2018-09-04T00:19:11.778Z,22.90
2018-09-04T00:21:39.533Z,19.83
2018-09-04T00:24:08.480Z,18.93
2018-09-04T00:26:36.825Z,17.30
2018-09-04T00:29:05.393Z,13.30
2018-09-04T00:31:32.921Z,14.20
2018-09-04T00:34:01.863Z,13.00
2018-09-04T00:36:29.617Z,12.20
2018-09-04T00:38:57.951Z,10.97
2018-09-04T00:41:26.876Z,14.87
2018-09-04T00:43:55.226Z,12.27
2018-09-04T00:46:23.548Z,10.50
2018-09-04T00:48:52.040Z,12.67
2018-09-04T00:51:20.378Z,11.57
2018-09-04T00:53:48.722Z,12.80
2018-09-04T00:56:17.280Z,11.60
2018-09-04T00:58:44.810Z,12.27
2018-09-04T01:01:13.154Z,13.77
2018-09-04T01:03:41.494Z,16.77
2018-09-04T01:06:10.418Z,15.93
2018-09-04T01:08:38.754Z,18.40
2018-09-04T01:11:07.702Z,15.43
2018-09-04T01:13:34.872Z,17.50
2018-09-04T01:16:03.207Z,16.80
2018-09-04T01:18:32.142Z,14.40
2018-09-04T01:21:00.679Z,15.30
2018-09-04T01:23:29.018Z,12.97
2018-09-04T01:25:56.765Z,12.63
2018-09-04T01:28:25.116Z,14.37
2018-09-04T01:30:54.024Z,10.37
2018-09-04T01:33:21.776Z,11.27
2018-09-04T01:35:50.696Z,11.40
2018-09-04T01:38:19.022Z,10.43
2018-09-04T01:40:47.355Z,11.03
2018-09-04T01:43:15.758Z,11.07
2018-09-04T01:45:43.515Z,11.90
2018-09-04T01:48:12.426Z,10.50
2018-09-04T01:50:40.769Z,10.77
2018-09-04T01:53:09.130Z,11.57
2018-09-04T01:55:37.450Z,12.53
2018-09-04T01:58:06.083Z,13.93
2018-09-04T02:00:33.553Z,16.10
2018-09-04T02:03:02.598Z,17.43
2018-09-04T02:05:30.363Z,18.40
2018-09-04T02:07:58.702Z,19.43
2018-09-04T02:10:28.387Z,19.60
2018-09-04T02:12:55.962Z,19.47
2018-09-04T02:15:24.316Z,17.13
2018-09-04T02:17:53.341Z,15.20
2018-09-04T02:20:20.976Z,14.70
2018-09-04T02:22:49.310Z,13.60
2018-09-04T02:25:17.649Z,12.43
2018-09-04T02:27:45.987Z,10.23
2018-09-04T02:30:14.326Z,12.00
2018-09-04T02:32:43.378Z,10.57
2018-09-04T02:35:10.969Z,10.77
2018-09-04T02:37:39.304Z,9.87
2018-09-04T02:40:07.063Z,9.43
2018-09-04T02:42:36.001Z,10.63
2018-09-04T02:45:04.355Z,9.33
2018-09-04T02:47:32.125Z,10.33
2018-09-04T02:50:01.045Z,11.43
2018-09-04T02:52:29.375Z,9.70
2018-09-04T02:54:57.691Z,9.30
2018-09-04T02:57:25.451Z,9.40
2018-09-04T02:59:53.801Z,10.47
2018-09-04T03:02:22.140Z,12.53
2018-09-04T03:04:51.060Z,16.53
2018-09-04T03:07:19.393Z,23.93
2018-09-04T03:09:47.728Z,28.20
2018-09-04T03:12:16.081Z,43.07
2018-09-04T03:14:44.408Z,38.87
2018-09-04T03:17:12.759Z,30.57
2018-09-04T03:19:40.516Z,27.03
2018-09-04T03:22:09.436Z,27.67
2018-09-04T03:24:37.787Z,27.53
2018-09-04T03:27:06.131Z,35.53
2018-09-04T03:29:36.191Z,29.63
2018-09-04T03:32:02.825Z,31.67
2018-09-04T03:34:30.584Z,23.93
2018-09-04T03:36:59.508Z,25.07
2018-09-04T03:39:27.865Z,75.57
2018-09-04T03:41:56.208Z,51.97
2018-09-04T03:44:24.006Z,47.60
2018-09-04T03:46:52.909Z,47.97
2018-09-04T03:49:21.472Z,17.30
2018-09-04T03:51:48.999Z,21.13
2018-09-04T03:54:17.908Z,28.73
2018-09-04T03:56:46.243Z,12.23
2018-09-04T03:59:14.564Z,6.83
2018-09-04T04:01:42.405Z,5.53
2018-09-04T04:04:10.638Z,8.63
2018-09-04T04:06:39.545Z,5.90
2018-09-04T04:09:07.291Z,9.93
2018-09-04T04:11:36.212Z,7.00
2018-09-04T04:14:04.546Z,8.60
2018-09-04T04:16:32.879Z,8.53
2018-09-04T04:19:00.622Z,7.53
2018-09-04T04:21:29.532Z,6.97
2018-09-04T04:23:57.945Z,6.63
2018-09-04T04:26:26.183Z,5.83
2018-09-04T04:28:54.518Z,7.03
2018-09-04T04:31:22.849Z,12.83
2018-09-04T04:33:51.193Z,12.53
2018-09-04T04:36:18.934Z,6.23
2018-09-04T04:38:47.843Z,5.57
2018-09-04T04:41:16.205Z,8.03
2018-09-04T04:43:44.514Z,6.10
2018-09-04T04:46:12.840Z,5.67
2018-09-04T04:48:41.184Z,5.90
2018-09-04T04:51:09.523Z,5.40
2018-09-04T04:53:37.862Z,5.60
2018-09-04T04:56:06.210Z,4.90
2018-09-04T04:58:33.994Z,6.40
2018-09-04T05:01:02.900Z,4.87
2018-09-04T05:03:31.242Z,5.67
2018-09-04T05:05:59.568Z,6.43
2018-09-04T05:08:27.889Z,5.20
2018-09-04T05:10:55.649Z,40.07
2018-09-04T05:13:24.548Z,11.47
2018-09-04T05:15:52.288Z,5.63
2018-09-04T05:18:21.232Z,6.47
2018-09-04T05:20:49.775Z,7.00
2018-09-04T05:23:17.653Z,6.37
2018-09-04T05:25:47.018Z,7.33
2018-09-04T05:28:14.626Z,8.23
2018-09-04T05:30:42.947Z,8.60
2018-09-04T05:33:10.710Z,12.10
2018-09-04T05:35:39.047Z,12.77
2018-09-04T05:38:07.400Z,13.53
2018-09-04T05:40:36.318Z,14.50
2018-09-04T05:43:04.677Z,15.10
2018-09-04T05:45:32.506Z,16.20
2018-09-04T05:48:03.267Z,37.00
2018-09-04T05:50:29.719Z,15.83
2018-09-04T05:52:58.088Z,15.90
2018-09-04T05:55:26.433Z,15.10
2018-09-04T05:57:54.205Z,16.60
2018-09-04T06:00:23.364Z,17.83
2018-09-04T06:02:51.228Z,15.33
2018-09-04T06:05:19.244Z,15.63
2018-09-04T06:07:47.577Z,17.27
2018-09-04T06:10:16.495Z,15.33
2018-09-04T06:12:44.846Z,14.83
2018-09-04T06:15:13.226Z,15.57
2018-09-04T06:17:40.970Z,11.40
2018-09-04T06:20:09.913Z,12.60
2018-09-04T06:22:38.230Z,10.80
2018-09-04T06:25:05.986Z,13.93
2018-09-04T06:27:34.960Z,12.83
2018-09-04T06:30:03.305Z,15.37
2018-09-04T06:32:31.651Z,18.37
2018-09-04T06:34:59.981Z,11.00
2018-09-04T06:37:27.734Z,15.37
2018-09-04T06:39:56.863Z,14.87
2018-09-04T06:42:25.197Z,14.70
2018-09-04T06:44:52.973Z,16.87
2018-09-04T06:47:21.877Z,10.93
2018-09-04T06:49:50.213Z,14.23
2018-09-04T06:52:18.560Z,10.80
2018-09-04T06:54:46.939Z,19.57
2018-09-04T06:57:15.834Z,18.97
2018-09-04T06:59:43.007Z,20.50
2018-09-04T07:02:11.344Z,13.00
2018-09-04T07:04:39.675Z,18.07
2018-09-04T07:07:08.005Z,19.63
2018-09-04T07:09:38.677Z,14.73
2018-09-04T07:12:05.703Z,14.63
2018-09-04T07:14:34.648Z,16.17
2018-09-04T07:17:03.079Z,13.60
2018-09-04T07:19:31.357Z,12.07
2018-09-04T07:21:59.721Z,12.63
2018-09-04T07:24:28.101Z,12.60
2018-09-04T07:26:55.852Z,9.77
2018-09-04T07:29:24.760Z,12.10
2018-09-04T07:31:53.350Z,12.93
2018-09-04T07:34:21.479Z,10.27
2018-09-04T07:36:49.253Z,15.87
2018-09-04T07:39:18.168Z,10.67
2018-09-04T07:41:45.979Z,19.07
2018-09-04T07:44:14.284Z,9.57
2018-09-04T07:46:43.196Z,9.33
2018-09-04T07:49:11.531Z,11.67
2018-09-04T07:51:39.286Z,8.37
2018-09-04T07:54:07.649Z,10.30
2018-09-04T07:56:36.591Z,8.60
2018-09-04T07:59:04.939Z,8.90
2018-09-04T08:01:33.280Z,8.93
2018-09-04T08:04:01.380Z,27.17
2018-09-04T08:06:30.116Z,6.47
2018-09-04T08:08:58.458Z,10.67
2018-09-04T08:11:26.783Z,7.17
2018-09-04T08:13:54.526Z,7.53
2018-09-04T08:16:23.467Z,5.70
2018-09-04T08:18:51.748Z,8.73
2018-09-04T08:21:19.514Z,7.97
2018-09-04T08:23:48.415Z,7.97
2018-09-04T08:26:16.802Z,6.03
2018-09-04T08:28:45.071Z,8.77
2018-09-04T08:31:12.818Z,7.40
2018-09-04T08:33:41.886Z,5.93
2018-09-04T08:36:10.222Z,6.73
2018-09-04T08:38:38.579Z,8.00
2018-09-04T08:41:06.909Z,5.90
2018-09-04T08:43:35.266Z,7.83
2018-09-04T08:46:03.812Z,6.07
2018-09-04T08:48:31.921Z,7.20
2018-09-04T08:51:00.493Z,7.13
2018-09-04T08:53:28.041Z,7.40
2018-09-04T08:55:56.382Z,7.43
2018-09-04T08:58:26.435Z,5.67
2018-09-04T09:00:54.171Z,10.20
2018-09-04T09:03:23.093Z,23.47
2018-09-04T09:05:50.894Z,11.00
2018-09-04T09:08:19.180Z,6.20
2018-09-04T09:10:48.079Z,7.33
2018-09-04T09:13:16.404Z,7.63
2018-09-04T09:15:44.141Z,6.37
2018-09-04T09:18:12.468Z,7.63
2018-09-04T09:20:40.789Z,6.17
2018-09-04T09:23:09.683Z,7.03
2018-09-04T09:25:37.432Z,6.97
2018-09-04T09:28:06.332Z,7.67
2018-09-04T09:30:34.667Z,8.50
2018-09-04T09:33:02.405Z,8.57
2018-09-04T09:35:30.733Z,7.87
2018-09-04T09:37:59.641Z,8.83
2018-09-04T09:40:27.964Z,5.47
2018-09-04T09:42:55.730Z,7.97
2018-09-04T09:45:24.041Z,9.33
2018-09-04T09:47:52.953Z,5.97
2018-09-04T09:50:21.280Z,4.87
2018-09-04T09:52:49.664Z,5.83
2018-09-04T09:55:17.380Z,8.00
2018-09-04T09:57:46.265Z,7.57
2018-09-04T10:00:14.591Z,6.23
2018-09-04T10:02:42.899Z,8.87
2018-09-04T10:05:11.241Z,5.20
2018-09-04T10:07:39.648Z,6.63
2018-09-04T10:10:07.945Z,24.27
2018-09-04T10:12:36.256Z,9.00
2018-09-04T10:15:04.580Z,6.20
2018-09-04T10:17:32.897Z,5.07
2018-09-04T10:20:01.340Z,6.20
2018-09-04T10:22:29.556Z,6.93
2018-09-04T10:24:57.305Z,4.97
2018-09-04T10:27:26.223Z,8.43
2018-09-04T10:29:53.957Z,6.70
2018-09-04T10:32:22.291Z,6.33
2018-09-04T10:34:50.627Z,7.07
2018-09-04T10:37:19.534Z,5.90
2018-09-04T10:39:48.232Z,8.47
2018-09-04T10:42:16.534Z,10.07
2018-09-04T10:45:05.293Z,9.23
2018-09-04T10:47:32.118Z,6.80
2018-09-04T10:50:00.489Z,6.77
2018-09-04T10:52:28.824Z,6.30
2018-09-04T10:55:00.498Z,5.50
2018-09-04T10:57:31.392Z,6.10
2018-09-04T10:59:59.789Z,8.77
2018-09-04T11:02:28.299Z,8.17
2018-09-04T11:04:56.538Z,4.50
2018-09-04T11:07:29.750Z,12.57
2018-09-04T11:09:58.132Z,20.93
2018-09-04T11:12:26.360Z,4.90
2018-09-04T11:14:54.365Z,7.00
2018-09-04T11:17:23.018Z,6.20
2018-09-04T11:19:51.343Z,6.87
2018-09-04T11:22:19.664Z,5.10
2018-09-04T11:24:47.398Z,8.50
2018-09-04T11:27:16.298Z,8.27
2018-09-04T11:29:44.116Z,7.33
2018-09-04T11:32:13.027Z,4.67
2018-09-04T11:34:40.787Z,6.10
2018-09-04T11:37:09.756Z,9.40
2018-09-04T11:39:37.541Z,5.83
2018-09-04T11:42:06.517Z,7.37
2018-09-04T11:44:34.868Z,4.03
2018-09-04T11:47:03.395Z,7.63
2018-09-04T11:49:32.197Z,4.60
2018-09-04T11:51:59.950Z,5.47
2018-09-04T11:54:28.885Z,7.50
2018-09-04T11:56:56.633Z,4.83
2018-09-04T11:59:25.595Z,5.17
2018-09-04T12:01:53.890Z,8.87
2018-09-04T12:04:21.664Z,5.53
2018-09-04T12:06:50.571Z,5.03
2018-09-04T12:09:18.924Z,8.03
2018-09-04T12:11:46.656Z,4.70
2018-09-04T12:14:15.020Z,7.33
2018-09-04T12:16:43.698Z,8.13
2018-09-04T12:19:11.739Z,5.33
2018-09-04T12:21:40.581Z,4.53
2018-09-04T12:24:09.116Z,5.60
2018-09-04T12:26:37.467Z,10.03
2018-09-04T12:29:06.018Z,5.43
2018-09-04T12:31:34.115Z,7.13
2018-09-04T12:34:02.464Z,5.70
2018-09-04T12:36:30.898Z,5.37
2018-09-04T12:38:59.200Z,7.67
2018-09-04T12:41:27.525Z,4.87
2018-09-04T12:43:55.284Z,5.07
2018-09-04T12:46:29.550Z,4.97
2018-09-04T12:48:57.702Z,12.57
2018-09-04T12:51:26.016Z,5.67
2018-09-04T12:53:57.037Z,5.70
2018-09-04T12:56:25.254Z,5.70
2018-09-04T12:58:53.729Z,6.53
2018-09-04T13:01:22.239Z,8.87
2018-09-04T13:03:51.749Z,5.53
2018-09-04T13:06:19.623Z,7.13
2018-09-04T13:08:48.660Z,17.70
2018-09-04T13:11:18.356Z,20.33
2018-09-04T13:14:10.179Z,12.43
2018-09-04T13:16:40.609Z,5.50
2018-09-04T13:19:09.013Z,5.77
2018-09-04T13:21:37.843Z,6.50
2018-09-04T13:24:07.902Z,5.03
2018-09-04T13:26:38.555Z,4.33
2018-09-04T13:29:06.980Z,5.63
2018-09-04T13:31:35.820Z,5.13
2018-09-04T13:34:04.214Z,6.40
2018-09-04T13:36:34.081Z,5.80
2018-09-04T13:39:03.645Z,5.50
2018-09-04T13:41:32.502Z,4.83
2018-09-04T13:44:01.400Z,5.30
2018-09-04T13:46:29.860Z,9.87
2018-09-04T13:48:58.426Z,7.33
2018-09-04T13:51:26.008Z,4.68
2018-09-04T13:53:54.345Z,7.12
2018-09-04T13:56:23.261Z,6.30
2018-09-04T13:58:51.591Z,5.90
2018-09-04T14:01:19.930Z,6.50
2018-09-04T14:03:47.693Z,4.90
2018-09-04T14:06:16.608Z,8.73
2018-09-04T14:08:44.347Z,6.40
2018-09-04T14:11:13.274Z,5.78
2018-09-04T14:13:41.590Z,7.28
2018-09-04T14:16:10.903Z,5.15
2018-09-04T14:18:38.646Z,4.82
2018-09-04T14:21:07.623Z,8.05
2018-09-04T14:23:35.883Z,7.20
2018-09-04T14:26:04.235Z,7.05
2018-09-04T14:29:06.425Z,4.87
2018-09-04T14:31:00.920Z,8.07
2018-09-04T14:33:29.263Z,8.10
2018-09-04T14:35:58.136Z,8.38
2018-09-04T14:38:26.462Z,5.78
2018-09-04T14:40:54.225Z,9.35
2018-09-04T14:43:23.177Z,5.30
2018-09-04T14:45:51.530Z,6.07
2018-09-04T14:48:20.551Z,6.80
2018-09-04T14:50:48.850Z,6.65
2018-09-04T14:53:17.173Z,10.85
2018-09-04T14:55:45.511Z,6.97
2018-09-04T14:58:13.852Z,6.93
2018-09-04T15:00:41.594Z,7.80
2018-09-04T15:03:10.800Z,6.72
2018-09-04T15:05:39.129Z,4.47
2018-09-04T15:08:07.467Z,10.10
2018-09-04T15:10:35.791Z,9.88
2018-09-04T15:13:04.756Z,6.97
2018-09-04T15:15:33.100Z,7.20
2018-09-04T15:18:01.442Z,5.50
2018-09-04T15:20:29.230Z,7.80
2018-09-04T15:22:58.206Z,5.45
2018-09-04T15:25:26.477Z,6.37
2018-09-04T15:27:55.491Z,5.00
2018-09-04T15:30:23.110Z,5.90
2018-09-04T15:32:51.675Z,8.13
2018-09-04T15:35:20.345Z,5.25
2018-09-04T15:37:48.754Z,5.10
2018-09-04T15:40:16.468Z,5.53
2018-09-04T15:42:46.696Z,10.30
2018-09-04T15:45:13.169Z,8.20
2018-09-04T15:47:41.498Z,9.25
2018-09-04T15:50:10.407Z,8.55
2018-09-04T15:52:38.782Z,8.50
2018-09-04T15:55:07.120Z,11.77
2018-09-04T15:57:35.491Z,11.80
2018-09-04T16:00:03.841Z,6.57
2018-09-04T16:02:31.584Z,9.07
2018-09-04T16:05:00.517Z,6.77
2018-09-04T16:07:28.851Z,6.37
2018-09-04T16:09:57.202Z,7.17
2018-09-04T16:12:25.530Z,7.83
2018-09-04T16:14:53.856Z,9.07
2018-09-04T16:17:21.619Z,7.00
2018-09-04T16:19:49.950Z,7.20
2018-09-04T16:22:18.859Z,6.10
2018-09-04T16:24:47.233Z,7.43
2018-09-04T16:27:15.524Z,8.87
2018-09-04T16:29:43.862Z,8.17
2018-09-04T16:32:12.197Z,10.60
2018-09-04T16:34:39.985Z,8.80
2018-09-04T16:37:08.927Z,12.03
2018-09-04T16:39:37.317Z,7.80
2018-09-04T16:42:05.681Z,7.77
2018-09-04T16:44:34.113Z,6.77
2018-09-04T16:47:02.865Z,6.43
2018-09-04T16:49:31.855Z,8.23
2018-09-04T16:51:59.493Z,10.63
2018-09-04T16:54:27.252Z,9.97
2018-09-04T16:56:56.137Z,8.73
2018-09-04T16:59:24.498Z,8.57
2018-09-04T17:01:52.814Z,7.17
2018-09-04T17:04:21.140Z,12.20
2018-09-04T17:06:49.474Z,9.13
2018-09-04T17:09:17.822Z,9.60
2018-09-04T17:11:46.148Z,7.43
2018-09-04T17:14:13.895Z,7.00
2018-09-04T17:16:42.811Z,10.30
2018-09-04T17:19:10.570Z,10.87
2018-09-04T17:21:39.496Z,9.13
2018-09-04T17:24:07.836Z,8.73
2018-09-04T17:26:36.170Z,8.27
2018-09-04T17:29:04.507Z,31.23
2018-09-04T17:31:32.866Z,15.63
2018-09-04T17:34:01.212Z,12.07
2018-09-04T17:36:29.557Z,11.03
2018-09-04T17:38:57.896Z,8.83
2018-09-04T17:41:25.640Z,7.40
2018-09-04T17:43:53.957Z,9.23
2018-09-04T17:46:22.869Z,10.23
2018-09-04T17:48:50.626Z,9.37
2018-09-04T17:51:19.771Z,11.47
2018-09-04T17:53:47.864Z,10.00
2018-09-04T17:56:16.194Z,10.43
2018-09-04T17:58:43.938Z,9.03
2018-09-04T18:01:12.851Z,9.90
2018-09-04T18:03:41.162Z,7.93
2018-09-04T18:06:09.857Z,9.17
2018-09-04T18:08:38.485Z,7.53
2018-09-04T18:11:06.613Z,9.40
2018-09-04T18:13:35.963Z,9.50
2018-09-04T18:16:04.300Z,9.53
2018-09-04T18:18:32.644Z,11.10
2018-09-04T18:21:01.250Z,16.23
2018-09-04T18:23:29.637Z,11.53
2018-09-04T18:25:58.368Z,12.57
2018-09-04T18:28:26.511Z,10.60
2018-09-04T18:30:54.943Z,10.33
2018-09-04T18:33:31.511Z,12.47
2018-09-04T18:35:59.949Z,13.13
2018-09-04T18:38:28.716Z,11.27
2018-09-04T18:40:58.857Z,12.07
2018-09-04T18:43:27.288Z,9.03
2018-09-04T18:45:56.761Z,10.30
2018-09-04T18:48:24.107Z,8.90
2018-09-04T18:50:52.454Z,9.57
2018-09-04T18:53:20.787Z,9.03
2018-09-04T18:55:49.108Z,9.40
2018-09-04T18:58:17.449Z,10.37
2018-09-04T19:00:45.797Z,19.00
2018-09-04T19:03:14.478Z,9.80
2018-09-04T19:05:43.617Z,8.97
2018-09-04T19:08:11.727Z,9.27
2018-09-04T19:10:40.190Z,9.60
2018-09-04T19:13:11.399Z,11.80
2018-09-04T19:15:39.500Z,13.73
2018-09-04T19:18:07.232Z,9.83
2018-09-04T19:20:37.174Z,8.77
2018-09-04T19:23:05.310Z,70.13
2018-09-04T19:25:33.651Z,10.77
2018-09-04T19:28:02.015Z,19.90
2018-09-04T19:30:29.798Z,9.50
2018-09-04T19:32:58.143Z,8.37
2018-09-04T19:35:27.081Z,10.23
2018-09-04T19:37:55.425Z,10.93
2018-09-04T19:40:23.300Z,9.63
2018-09-04T19:42:52.326Z,11.93
2018-09-04T19:45:20.440Z,8.80
2018-09-04T19:47:49.447Z,8.77
2018-09-04T19:50:17.779Z,8.57
2018-09-04T19:52:46.116Z,10.07
2018-09-04T19:55:13.868Z,8.87
2018-09-04T19:57:42.785Z,11.10
2018-09-04T20:00:11.120Z,8.93
2018-09-04T20:02:38.864Z,9.83
2018-09-04T20:05:07.789Z,10.03
2018-09-04T20:07:36.159Z,11.00
2018-09-04T20:10:04.502Z,13.67
2018-09-04T20:12:32.843Z,10.33
2018-09-04T20:15:01.437Z,10.27
2018-09-04T20:17:29.723Z,9.20
2018-09-04T20:19:58.057Z,46.77
2018-09-04T20:22:26.402Z,16.60
2018-09-04T20:24:54.765Z,12.57
2018-09-04T20:27:23.116Z,9.47
2018-09-04T20:29:50.939Z,9.70
2018-09-04T20:32:19.200Z,13.53
2018-09-04T20:34:47.537Z,18.07
2018-09-04T20:37:15.860Z,17.80
2018-09-04T20:39:44.211Z,16.80
2018-09-04T20:42:12.601Z,16.20
2018-09-04T20:44:41.537Z,16.97
2018-09-04T20:47:10.054Z,19.60
2018-09-04T20:49:54.745Z,17.37
2018-09-04T20:52:22.409Z,17.27
2018-09-04T20:54:51.760Z,18.70
2018-09-04T20:57:20.698Z,18.37
2018-09-04T21:00:00.847Z,20.70
2018-09-04T21:02:40.701Z,22.80
2018-09-04T21:05:21.420Z,17.57
2018-09-04T21:07:49.944Z,20.33
2018-09-04T21:10:19.568Z,21.83
2018-09-04T21:12:47.975Z,22.03
2018-09-04T21:15:17.654Z,23.63
2018-09-04T21:17:46.638Z,20.63
2018-09-04T21:20:15.276Z,20.63
2018-09-04T21:22:43.090Z,15.87
2018-09-04T21:25:12.050Z,17.23
2018-09-04T21:27:41.715Z,13.33
2018-09-04T21:30:09.883Z,13.00
2018-09-04T21:32:41.507Z,13.00
2018-09-04T21:35:10.295Z,14.30
2018-09-04T21:37:38.383Z,13.63
2018-09-04T21:40:07.524Z,12.90
2018-09-04T21:42:35.883Z,13.67
2018-09-04T21:45:03.759Z,13.17
2018-09-04T21:47:32.682Z,12.93
2018-09-04T21:50:00.440Z,11.73
2018-09-04T21:52:28.797Z,13.27
2018-09-04T21:54:57.134Z,16.27
2018-09-04T21:57:26.069Z,12.30
2018-09-04T21:59:54.402Z,12.17
2018-09-04T22:02:22.759Z,12.50
2018-09-04T22:04:51.106Z,12.80
2018-09-04T22:07:18.884Z,12.77
2018-09-04T22:09:47.874Z,14.13
2018-09-04T22:12:16.621Z,11.33
2018-09-04T22:14:45.239Z,11.40
2018-09-04T22:17:13.386Z,13.10
2018-09-04T22:19:42.528Z,11.13
2018-09-04T22:22:11.192Z,11.97
2018-09-04T22:24:39.487Z,14.73
2018-09-04T22:27:07.238Z,16.33
2018-09-04T22:29:36.196Z,20.67
2018-09-04T22:32:04.542Z,20.07
2018-09-04T22:34:32.888Z,19.97
2018-09-04T22:37:01.443Z,18.07
2018-09-04T22:39:29.561Z,17.80
2018-09-04T22:41:58.892Z,15.30
2018-09-04T22:44:25.662Z,14.60
2018-09-04T22:46:54.789Z,14.57
2018-09-04T22:49:23.328Z,17.07
2018-09-04T22:51:51.456Z,15.43
2018-09-04T22:54:20.404Z,14.30
2018-09-04T22:56:48.972Z,14.70
2018-09-04T22:59:18.717Z,14.57
2018-09-04T23:01:46.862Z,15.67
2018-09-04T23:04:15.173Z,15.40
2018-09-04T23:06:43.911Z,16.73
2018-09-04T23:09:12.029Z,17.47
2018-09-04T23:11:40.376Z,16.83
2018-09-04T23:14:08.710Z,17.03
2018-09-04T23:16:38.281Z,14.63
2018-09-04T23:19:06.416Z,14.53
2018-09-04T23:21:34.787Z,17.07
2018-09-04T23:24:03.134Z,15.00
2018-09-04T23:26:31.839Z,17.63
2018-09-04T23:29:00.226Z,19.93
2018-09-04T23:31:28.636Z,21.43
2018-09-04T23:33:57.557Z,21.90
2018-09-04T23:36:26.677Z,26.63
2018-09-04T23:38:54.999Z,26.60
2018-09-04T23:41:23.640Z,25.83
2018-09-04T23:43:52.956Z,20.97
2018-09-04T23:46:19.895Z,21.40
2018-09-04T23:48:48.837Z,24.33
2018-09-04T23:51:19.393Z,19.40
2018-09-04T23:53:46.778Z,17.47
2018-09-04T23:56:14.521Z,13.00
2018-09-04T23:58:43.431Z,14.20
